Ardsley, Pennsylvania
Current Conditions -  °F | °C
As of 4:15 AM on Monday 24 Nov 2014 (Local Time) from KLOM Reporting Station
Overcast Overcast  
Wind Chill: 17°   Ceiling: 900
Heat Index: 17°   Visibility: 2.5mi
Dew Point: 16°   Wind: 21mph
Humidity: 94%   Direction: 170°S
Pressure: 29.67"   Gusts: 29mph
Location:  40.1012°N, 75.1722°W
Report Text: KLOM 240915Z AUTO 17018G25KT 2 1/2SM OVC009 17/16 A2967 RMK AO1 P0001
Loading
Personal Weather Stations






























Interactive Weather Map New forecast layout! Learn more

10-Day Weather Forecast

Advertisements
Track Severe Weather on mobile